Time;durP1;ratioP1;P1;durP2;ratioP2;P2;SDS_P1;SDS_P2;PMS_P1;PMS_P2;Temp;Humidity;BMP_temperature;BMP_pressure;BME280_temperature;BME280_humidity;BME280_pressure;Samples;Min_cycle;Max_cycle;Signal;HPM_P1;HPM_P2
2021/04/06 00:01:43;;;;;;;75.22;44.30;;;8.20;91.10;;;;;;5096364;28;20041;-71
2021/04/06 00:04:13;;;;;;;62.80;38.45;;;8.20;91.50;;;;;;5096033;28;20404;-71
2021/04/06 00:06:42;;;;;;;67.72;41.38;;;8.20;91.20;;;;;;5095315;28;20351;-78
2021/04/06 00:09:12;;;;;;;57.85;35.72;;;8.00;91.00;;;;;;5097598;28;20386;-72
2021/04/06 00:11:41;;;;;;;63.53;39.42;;;8.00;91.40;;;;;;5098118;28;20016;-74
2021/04/06 00:14:08;;;;;;;57.25;36.38;;;7.90;91.80;;;;;;5098710;28;20066;-71
2021/04/06 00:16:35;;;;;;;53.80;32.08;;;7.90;91.60;;;;;;5098923;28;20370;-76
2021/04/06 00:19:03;;;;;;;57.88;34.05;;;7.80;91.60;;;;;;5098379;28;20016;-71
2021/04/06 00:21:31;;;;;;;52.35;33.15;;;7.80;91.70;;;;;;5099511;28;20073;-76
2021/04/06 00:23:59;;;;;;;54.25;32.40;;;7.80;91.70;;;;;;5099950;28;20042;-72
2021/04/06 00:26:49;;;;;;;52.78;33.42;;;7.70;91.90;;;;;;5099168;28;20046;-72
2021/04/06 00:29:17;;;;;;;50.55;32.65;;;7.70;91.90;;;;;;5099324;28;20442;-71
2021/04/06 00:31:46;;;;;;;54.72;33.38;;;7.70;91.80;;;;;;5099573;28;20484;-77
2021/04/06 00:34:21;;;;;;;52.20;32.95;;;7.70;91.80;;;;;;5098487;28;20416;-76
2021/04/06 00:36:53;;;;;;;58.35;33.35;;;7.50;92.10;;;;;;5098988;28;20019;-72
2021/04/06 00:39:33;;;;;;;69.10;48.63;;;7.60;92.10;;;;;;5097613;28;20035;-74
2021/04/06 00:42:30;;;;;;;54.10;32.55;;;7.60;92.00;;;;;;5099124;28;20018;-72
2021/04/06 00:45:01;;;;;;;47.35;30.73;;;7.60;91.70;;;;;;5100250;28;20046;-71
2021/04/06 00:47:30;;;;;;;48.72;30.38;;;7.60;92.10;;;;;;5099818;28;20428;-71
2021/04/06 00:50:02;;;;;;;47.35;32.75;;;7.60;91.80;;;;;;5097038;28;20500;-75
2021/04/06 00:52:28;;;;;;;46.83;31.15;;;7.60;92.10;;;;;;5098970;28;20027;-71
2021/04/06 00:54:58;;;;;;;47.17;30.63;;;7.60;91.90;;;;;;5097867;28;20020;-73
2021/04/06 00:57:32;;;;;;;50.47;31.95;;;7.50;91.90;;;;;;5098287;28;20016;-72
2021/04/06 01:00:18;;;;;;;55.20;31.52;;;7.30;92.30;;;;;;5096145;28;20093;-77
2021/04/06 01:02:58;;;;;;;47.42;30.38;;;7.30;92.50;;;;;;5096693;28;20024;-77
2021/04/06 01:05:26;;;;;;;44.80;29.85;;;7.20;92.70;;;;;;5096879;28;20459;-78
2021/04/06 01:07:54;;;;;;;49.55;29.38;;;7.30;92.90;;;;;;5097309;28;20099;-78
2021/04/06 01:10:23;;;;;;;48.13;28.75;;;7.30;92.60;;;;;;5099541;28;20478;-72
2021/04/06 01:12:49;;;;;;;49.92;30.30;;;7.30;92.50;;;;;;5100009;28;20041;-72
2021/04/06 01:15:18;;;;;;;50.00;29.70;;;;;;;;;;5098902;28;20035;-74
2021/04/06 01:17:45;;;;;;;45.17;29.42;;;7.20;92.20;;;;;;5097916;28;20027;-78
2021/04/06 01:20:15;;;;;;;43.42;27.65;;;7.20;92.60;;;;;;5098843;28;20058;-73
2021/04/06 01:22:46;;;;;;;42.58;27.00;;;7.10;92.50;;;;;;5100229;28;20017;-76
2021/04/06 01:25:29;;;;;;;42.17;26.08;;;6.90;93.00;;;;;;5099925;28;20054;-71
2021/04/06 01:28:05;;;;;;;43.30;25.20;;;7.00;92.90;;;;;;5099831;28;20066;-71
2021/04/06 01:30:52;;;;;;;43.60;24.40;;;6.90;92.90;;;;;;5099368;28;20430;-72
2021/04/06 01:33:19;;;;;;;42.88;23.10;;;7.00;93.00;;;;;;5099672;28;20044;-78
2021/04/06 01:35:47;;;;;;;41.20;22.65;;;6.90;93.50;;;;;;5097843;28;20426;-78
2021/04/06 01:38:15;;;;;;;43.88;24.45;;;7.00;93.00;;;;;;5098722;28;20024;-74
2021/04/06 01:40:43;;;;;;;40.95;22.80;;;6.90;93.00;;;;;;5099446;28;20024;-71
2021/04/06 01:43:11;;;;;;;36.20;23.13;;;6.90;93.40;;;;;;5098052;28;20024;-74
2021/04/06 01:45:43;;;;;;;39.45;22.40;;;6.90;93.50;;;;;;5098566;28;20030;-71
2021/04/06 01:48:17;;;;;;;37.17;22.50;;;6.80;93.80;;;;;;5098361;28;20021;-76
2021/04/06 01:50:48;;;;;;;36.63;22.23;;;6.80;93.40;;;;;;5097178;28;20370;-73
2021/04/06 01:53:16;;;;;;;35.22;22.05;;;6.70;94.20;;;;;;5097856;28;20041;-74
2021/04/06 01:55:48;;;;;;;35.17;21.05;;;6.80;94.30;;;;;;5095534;28;20016;-79
2021/04/06 01:58:14;;;;;;;30.92;20.83;;;6.70;94.60;;;;;;5098811;28;20024;-73
2021/04/06 02:03:17;;;;;;;33.00;21.45;;;6.70;94.60;;;;;;5098330;28;20021;-72
2021/04/06 02:05:45;;;;;;;33.58;21.75;;;6.70;94.60;;;;;;5099335;28;20016;-71
2021/04/06 02:08:15;;;;;;;31.13;21.13;;;6.60;95.00;;;;;;5099502;28;20056;-77
2021/04/06 02:10:42;;;;;;;33.67;21.27;;;6.70;95.20;;;;;;5098637;28;20028;-78
2021/04/06 02:13:15;;;;;;;36.55;21.55;;;6.70;94.90;;;;;;5099195;28;20027;-78
2021/04/06 02:15:57;;;;;;;36.92;21.75;;;6.50;95.70;;;;;;5099207;28;20020;-71
2021/04/06 02:18:24;;;;;;;38.15;20.80;;;6.60;95.40;;;;;;5097981;28;20099;-72
2021/04/06 02:20:55;;;;;;;37.88;21.67;;;6.60;95.50;;;;;;5098819;28;20048;-78
2021/04/06 02:23:22;;;;;;;33.85;20.60;;;6.60;95.60;;;;;;5096581;28;20036;-77
2021/04/06 02:25:56;;;;;;;33.75;20.88;;;6.70;95.80;;;;;;5094863;28;20557;-72
2021/04/06 02:28:24;;;;;;;43.87;22.90;;;6.80;95.50;;;;;;5098020;28;20065;-76
2021/04/06 02:30:57;;;;;;;37.97;21.98;;;6.70;96.40;;;;;;5095356;28;20248;-71
2021/04/06 02:33:29;;;;;;;38.03;22.77;;;6.60;96.00;;;;;;5094808;28;20027;-78
2021/04/06 02:36:02;;;;;;;46.05;23.33;;;6.60;96.20;;;;;;5096622;28;20052;-71
2021/04/06 02:38:30;;;;;;;44.63;23.52;;;6.70;96.20;;;;;;5095638;28;20024;-71
2021/04/06 02:41:11;;;;;;;47.05;23.67;;;6.80;96.00;;;;;;5095607;28;20028;-71
2021/04/06 02:43:55;;;;;;;48.08;23.10;;;6.70;96.20;;;;;;5096529;28;20165;-74
2021/04/06 02:46:24;;;;;;;42.53;23.90;;;6.60;96.10;;;;;;5095952;28;20027;-74
2021/04/06 02:48:53;;;;;;;52.58;28.75;;;6.60;96.30;;;;;;5095655;28;20482;-78
2021/04/06 02:51:19;;;;;;;56.33;36.75;;;6.60;96.80;;;;;;5094501;28;20077;-73
2021/04/06 02:53:54;;;;;;;44.25;29.70;;;6.70;96.70;;;;;;5095853;28;20016;-76
2021/04/06 02:56:31;;;;;;;40.47;25.40;;;6.70;96.40;;;;;;5096132;28;20032;-71
2021/04/06 02:59:18;;;;;;;40.78;26.33;;;6.70;96.50;;;;;;5095649;28;20401;-70
2021/04/06 03:01:45;;;;;;;34.28;24.00;;;6.70;96.00;;;;;;5095489;28;20381;-71
2021/04/06 03:04:21;;;;;;;37.53;22.52;;;6.70;95.60;;;;;;5095729;28;20031;-73
2021/04/06 03:06:48;;;;;;;31.95;20.30;;;6.70;96.00;;;;;;5094554;28;20389;-71
2021/04/06 03:09:15;;;;;;;32.58;20.55;;;6.70;95.90;;;;;;5094992;28;20020;-78
2021/04/06 03:11:43;;;;;;;33.15;20.73;;;6.60;95.90;;;;;;5094921;28;20492;-78
2021/04/06 03:14:09;;;;;;;33.72;20.70;;;6.50;95.70;;;;;;5095045;28;20024;-73
2021/04/06 03:16:37;;;;;;;39.35;21.75;;;6.60;95.80;;;;;;5093614;28;20024;-76
2021/04/06 03:19:04;;;;;;;39.03;21.58;;;6.40;96.20;;;;;;5095412;28;20027;-71
2021/04/06 03:21:32;;;;;;;41.25;22.38;;;6.40;96.20;;;;;;5094777;28;20055;-71
2021/04/06 03:24:02;;;;;;;32.92;21.25;;;6.30;96.40;;;;;;5094621;28;20486;-75
2021/04/06 03:26:28;;;;;;;37.67;21.23;;;6.30;96.30;;;;;;5094965;28;20096;-71
2021/04/06 03:29:02;;;;;;;31.23;21.55;;;6.20;96.50;;;;;;5096053;28;20061;-77
2021/04/06 03:31:31;;;;;;;32.90;20.38;;;6.20;96.50;;;;;;5095854;28;20124;-71
2021/04/06 03:33:59;;;;;;;30.20;18.60;;;6.10;96.70;;;;;;5095148;28;20054;-73
2021/04/06 03:36:32;;;;;;;33.50;21.38;;;6.20;96.70;;;;;;5095318;28;20085;-70
2021/04/06 03:39:09;;;;;;;29.55;19.75;;;6.10;96.90;;;;;;5095472;28;20485;-72
2021/04/06 03:41:36;;;;;;;31.58;20.48;;;6.10;97.20;;;;;;5093883;28;20024;-74
2021/04/06 03:44:10;;;;;;;27.48;19.02;;;6.20;97.20;;;;;;5095440;28;20478;-77
2021/04/06 03:46:37;;;;;;;35.13;22.10;;;6.30;96.90;;;;;;5093705;28;20028;-77
2021/04/06 03:49:22;;;;;;;39.55;23.27;;;6.30;97.10;;;;;;5094757;28;20020;-76
2021/04/06 03:51:53;;;;;;;35.80;23.33;;;6.20;97.20;;;;;;5094436;28;20023;-75
2021/04/06 03:54:47;;;;;;;37.95;25.00;;;6.20;97.30;;;;;;5093915;28;20402;-75
2021/04/06 03:57:47;;;;;;;43.17;23.83;;;6.20;97.40;;;;;;5095454;28;20020;-77
2021/04/06 04:00:14;;;;;;;37.83;23.45;;;6.20;97.40;;;;;;5094660;28;20016;-72
2021/04/06 04:02:40;;;;;;;56.40;33.90;;;6.30;97.30;;;;;;5094171;28;20042;-76
2021/04/06 04:05:07;;;;;;;38.58;25.80;;;6.50;96.80;;;;;;5094960;28;20043;-74
2021/04/06 04:07:34;;;;;;;39.38;23.63;;;6.60;96.50;;;;;;5095343;28;20473;-70
2021/04/06 04:10:00;;;;;;;38.10;22.70;;;6.70;96.30;;;;;;5095084;28;20028;-76
2021/04/06 04:12:26;;;;;;;30.77;20.17;;;6.70;96.70;;;;;;5092313;28;20085;-77
2021/04/06 04:14:55;;;;;;;27.40;18.13;;;6.80;96.60;;;;;;5094547;28;20016;-77
2021/04/06 04:17:21;;;;;;;20.63;15.23;;;6.70;97.10;;;;;;5094463;28;20028;-74
2021/04/06 04:19:47;;;;;;;20.95;14.65;;;6.70;97.20;;;;;;5094531;28;20516;-73
2021/04/06 04:22:13;;;;;;;21.90;14.90;;;6.60;97.30;;;;;;5093935;28;20069;-72
2021/04/06 04:24:39;;;;;;;20.50;15.70;;;6.60;97.80;;;;;;5093983;28;20486;-70
2021/04/06 04:27:05;;;;;;;22.52;16.38;;;6.60;98.00;;;;;;5093352;28;20024;-76
2021/04/06 04:29:31;;;;;;;22.20;16.50;;;6.60;97.70;;;;;;5093793;28;20036;-77
2021/04/06 04:31:57;;;;;;;23.10;16.48;;;6.40;97.80;;;;;;5094727;28;20535;-70
2021/04/06 04:34:23;;;;;;;22.20;16.30;;;6.50;98.10;;;;;;5094522;28;20028;-71
2021/04/06 04:36:49;;;;;;;21.33;15.77;;;6.50;97.90;;;;;;5094004;28;20041;-70
2021/04/06 04:39:15;;;;;;;22.48;16.80;;;6.70;96.90;;;;;;5094365;28;20028;-77
2021/04/06 04:41:41;;;;;;;22.77;17.08;;;6.60;97.40;;;;;;5093244;28;20141;-73
2021/04/06 04:44:07;;;;;;;24.83;17.88;;;6.70;97.50;;;;;;5094810;28;20019;-71
2021/04/06 04:46:33;;;;;;;30.45;20.60;;;6.60;97.90;;;;;;5093030;28;20375;-76
2021/04/06 04:49:00;;;;;;;31.00;21.23;;;6.50;98.40;;;;;;5095856;28;20042;-75
2021/04/06 04:51:26;;;;;;;28.60;21.80;;;6.50;98.30;;;;;;5093937;28;20028;-72
2021/04/06 04:53:52;;;;;;;36.35;22.58;;;6.60;98.40;;;;;;5094034;28;20035;-73
2021/04/06 04:56:18;;;;;;;33.17;21.98;;;6.60;98.10;;;;;;5097151;28;20381;-76
2021/04/06 04:58:44;;;;;;;30.38;22.80;;;6.70;98.10;;;;;;5097818;28;20078;-71
2021/04/06 05:01:11;;;;;;;28.90;22.98;;;6.70;98.00;;;;;;5096354;28;20024;-76
2021/04/06 05:03:37;;;;;;;30.08;23.05;;;6.80;98.30;;;;;;5097850;28;20024;-72
2021/04/06 05:06:04;;;;;;;30.52;23.38;;;6.80;97.90;;;;;;5098932;28;20016;-71
2021/04/06 05:08:30;;;;;;;68.63;44.78;;;6.80;98.10;;;;;;5097054;28;20020;-76
2021/04/06 05:10:56;;;;;;;81.85;43.13;;;6.80;97.80;;;;;;5096764;28;20028;-71
2021/04/06 05:13:22;;;;;;;56.15;37.58;;;6.80;97.50;;;;;;5098202;28;20031;-74
2021/04/06 05:15:48;;;;;;;67.63;42.88;;;6.70;97.50;;;;;;5097363;28;20477;-72
2021/04/06 05:18:13;;;;;;;91.05;52.30;;;6.70;97.40;;;;;;5097389;28;20370;-70
2021/04/06 05:20:39;;;;;;;115.20;63.42;;;6.50;96.90;;;;;;5096982;28;20482;-71
2021/04/06 05:23:05;;;;;;;106.90;56.85;;;6.50;97.40;;;;;;5095761;28;20020;-76
2021/04/06 05:25:31;;;;;;;60.78;39.38;;;6.60;97.30;;;;;;5097368;28;20477;-72
2021/04/06 05:27:57;;;;;;;55.85;34.95;;;6.70;97.30;;;;;;5096443;28;20024;-72
2021/04/06 05:30:23;;;;;;;41.53;26.30;;;6.70;96.10;;;;;;5098987;28;20051;-74
2021/04/06 05:32:49;;;;;;;44.08;27.98;;;6.70;94.70;;;;;;5098310;28;20134;-73
2021/04/06 05:35:15;;;;;;;35.65;22.80;;;6.70;94.30;;;;;;5097084;28;20047;-73
2021/04/06 05:37:41;;;;;;;36.05;23.58;;;6.70;93.30;;;;;;5097812;28;20035;-74
2021/04/06 05:40:07;;;;;;;30.73;20.13;;;6.80;93.70;;;;;;5096088;28;20032;-70
2021/04/06 05:42:33;;;;;;;24.25;15.43;;;6.90;93.60;;;;;;5098582;28;20044;-73
2021/04/06 05:45:00;;;;;;;29.02;16.85;;;7.00;92.00;;;;;;5097079;28;20470;-74
2021/04/06 05:47:39;;;;;;;33.85;18.42;;;7.10;91.80;;;;;;5096639;28;20525;-72
2021/04/06 05:50:07;;;;;;;26.65;16.20;;;7.20;91.90;;;;;;5098110;28;20030;-74
2021/04/06 05:52:33;;;;;;;23.90;15.05;;;7.20;92.10;;;;;;5098734;28;20016;-76
2021/04/06 05:55:05;;;;;;;27.92;13.73;;;7.30;91.90;;;;;;5097172;28;20044;-72
2021/04/06 05:57:31;;;;;;;18.67;11.73;;;7.30;91.90;;;;;;5096320;28;20099;-73
2021/04/06 05:59:57;;;;;;;19.98;10.15;;;7.30;93.00;;;;;;5095836;28;20131;-71
2021/04/06 06:02:23;;;;;;;21.15;11.82;;;7.40;94.00;;;;;;5094317;28;20087;-69
2021/04/06 06:04:49;;;;;;;34.17;9.15;;;7.30;95.00;;;;;;5094653;28;20042;-73
2021/04/06 06:07:16;;;;;;;18.60;5.50;;;7.40;95.40;;;;;;5095781;28;20020;-68
2021/04/06 06:09:46;;;;;;;6.82;2.90;;;7.30;96.00;;;;;;5096364;28;20059;-68
2021/04/06 06:12:13;;;;;;;11.18;4.55;;;7.20;95.30;;;;;;5097342;28;20398;-69
2021/04/06 06:14:51;;;;;;;18.33;4.07;;;7.10;95.70;;;;;;5096702;28;20043;-69
2021/04/06 06:17:26;;;;;;;7.05;3.38;;;7.10;95.30;;;;;;5098235;28;20080;-69
2021/04/06 06:19:54;;;;;;;11.90;2.85;;;7.00;95.40;;;;;;5097242;28;20196;-70
2021/04/06 06:22:29;;;;;;;6.82;2.83;;;7.10;95.20;;;;;;5097624;28;20095;-74
2021/04/06 06:25:06;;;;;;;10.27;5.43;;;7.10;95.30;;;;;;5108143;28;20039;-70
2021/04/06 06:33:27;;;;;;;7.78;3.45;;;7.20;94.80;;;;;;5109668;28;20063;-70
2021/04/06 06:36:01;;;;;;;5.43;2.55;;;7.10;94.70;;;;;;5118426;28;20027;-75
2021/04/06 06:38:30;;;;;;;3.58;1.98;;;7.20;94.40;;;;;;5117550;28;20500;-71
2021/04/06 06:41:11;;;;;;;4.05;2.10;;;7.10;94.70;;;;;;5118853;28;20020;-68
2021/04/06 06:43:58;;;;;;;14.23;4.40;;;7.20;94.50;;;;;;5116626;28;20016;-70
2021/04/06 06:46:30;;;;;;;11.85;2.92;;;7.20;94.00;;;;;;5106449;28;20085;-71
2021/04/06 06:49:06;;;;;;;7.82;2.90;;;7.10;94.20;;;;;;5103036;28;20104;-71
2021/04/06 06:51:36;;;;;;;7.13;4.45;;;7.20;93.60;;;;;;5105601;28;20023;-72
2021/04/06 06:54:03;;;;;;;5.57;3.10;;;7.00;93.30;;;;;;5114465;28;20500;-70
2021/04/06 06:56:34;;;;;;;6.60;4.18;;;7.20;93.70;;;;;;5114353;28;20157;-71
2021/04/06 06:59:00;;;;;;;11.88;4.10;;;7.30;93.30;;;;;;5114451;28;20031;-70
2021/04/06 07:01:30;;;;;;;8.30;5.20;;;7.30;92.90;;;;;;5114150;28;20114;-71
2021/04/06 07:04:07;;;;;;;10.50;5.07;;;7.40;93.00;;;;;;5115388;27;20035;-73
2021/04/06 07:06:34;;;;;;;12.55;5.15;;;7.50;92.40;;;;;;5115785;28;20020;-71
2021/04/06 07:09:00;;;;;;;18.08;10.88;;;7.50;92.00;;;;;;5115426;28;20044;-73
2021/04/06 07:11:28;;;;;;;36.25;26.17;;;7.40;91.80;;;;;;5116060;28;20136;-78
2021/04/06 07:13:54;;;;;;;36.78;23.02;;;7.40;92.00;;;;;;5111906;28;20028;-72
2021/04/06 07:16:21;;;;;;;33.60;16.38;;;7.40;91.80;;;;;;5093966;28;20016;-73
2021/04/06 07:18:49;;;;;;;29.10;15.05;;;7.40;91.10;;;;;;5097460;28;20022;-71
2021/04/06 07:21:22;;;;;;;20.50;12.38;;;7.30;91.20;;;;;;5098050;28;20464;-76
2021/04/06 07:24:09;;;;;;;7.57;4.20;;;7.40;91.50;;;;;;5098313;28;20023;-72
2021/04/06 07:26:36;;;;;;;15.35;6.88;;;7.30;90.60;;;;;;5097047;28;20103;-71
2021/04/06 07:29:04;;;;;;;6.65;3.40;;;7.20;90.40;;;;;;5097804;28;20494;-75
2021/04/06 07:31:32;;;;;;;9.93;3.88;;;7.20;91.10;;;;;;5096423;28;20039;-71
2021/04/06 07:33:59;;;;;;;7.68;5.05;;;7.30;91.30;;;;;;5095448;28;20073;-71
2021/04/06 07:36:26;;;;;;;7.97;3.55;;;7.20;90.10;;;;;;5095624;28;20034;-71
2021/04/06 07:39:06;;;;;;;8.20;2.97;;;7.30;90.10;;;;;;5096632;28;20012;-72
2021/04/06 07:41:35;;;;;;;6.63;3.35;;;7.10;90.10;;;;;;5096183;28;20024;-75
2021/04/06 07:44:03;;;;;;;10.00;5.28;;;7.00;89.60;;;;;;5095843;28;20055;-72
2021/04/06 07:46:35;;;;;;;6.60;3.58;;;7.00;90.30;;;;;;5096716;28;20047;-73
2021/04/06 07:49:34;;;;;;;7.40;3.20;;;7.20;90.20;;;;;;5096681;28;20028;-72
2021/04/06 07:52:05;;;;;;;5.35;3.40;;;7.30;90.10;;;;;;5094482;28;20020;-75
2021/04/06 07:54:30;;;;;;;7.35;4.70;;;7.30;90.30;;;;;;5094923;28;20386;-76
2021/04/06 07:56:59;;;;;;;5.80;2.72;;;7.20;90.40;;;;;;5093076;28;20024;-76
2021/04/06 07:59:25;;;;;;;4.72;2.72;;;7.20;89.60;;;;;;5093998;28;20016;-75
2021/04/06 08:01:53;;;;;;;6.22;2.63;;;7.50;90.00;;;;;;5093922;28;20026;-75
2021/04/06 08:04:24;;;;;;;8.93;3.10;;;7.60;89.90;;;;;;5094183;28;20077;-75
2021/04/06 08:06:57;;;;;;;9.07;3.25;;;7.50;87.00;;;;;;5094125;28;20028;-72
2021/04/06 08:09:32;;;;;;;8.40;3.03;;;7.40;83.40;;;;;;5094744;28;20048;-74
2021/04/06 08:12:08;;;;;;;11.18;5.13;;;7.40;82.90;;;;;;5094603;28;20024;-72
2021/04/06 08:14:38;;;;;;;8.57;2.90;;;7.20;81.50;;;;;;5094578;28;20086;-74
2021/04/06 08:17:26;;;;;;;8.43;2.45;;;7.30;80.60;;;;;;5093034;28;20035;-70
2021/04/06 08:19:55;;;;;;;7.45;2.75;;;7.40;81.10;;;;;;5097681;28;20075;-75
2021/04/06 08:22:26;;;;;;;10.23;4.22;;;7.50;79.70;;;;;;5115850;28;20016;-75
2021/04/06 08:25:15;;;;;;;7.32;3.13;;;7.60;78.80;;;;;;5117436;28;20440;-72
2021/04/06 08:27:43;;;;;;;6.72;3.35;;;7.70;79.90;;;;;;5076431;28;20030;-73
2021/04/06 08:30:35;;;;;;;19.58;8.32;;;7.80;79.90;;;;;;5117166;28;20116;-70
2021/04/06 08:33:01;;;;;;;11.90;5.65;;;8.00;81.50;;;;;;5120267;28;20027;-70
2021/04/06 08:35:48;;;;;;;15.95;5.50;;;8.00;81.30;;;;;;5118102;28;20031;-78
2021/04/06 08:38:23;;;;;;;6.97;2.83;;;8.00;80.50;;;;;;5118753;28;20027;-75
2021/04/06 08:41:06;;;;;;;7.38;2.58;;;7.60;78.30;;;;;;5118323;28;20050;-75
2021/04/06 08:43:33;;;;;;;8.05;2.67;;;7.20;77.80;;;;;;5118305;28;20462;-72
2021/04/06 08:46:05;;;;;;;28.65;12.93;;;7.00;79.80;;;;;;5119706;28;20020;-70
2021/04/06 08:48:50;;;;;;;64.20;26.13;;;6.90;81.70;;;;;;5119185;28;20031;-71
2021/04/06 08:51:30;;;;;;;28.95;15.70;;;6.80;82.40;;;;;;5119457;28;20032;-73
2021/04/06 08:54:05;;;;;;;18.20;8.90;;;6.90;82.30;;;;;;5119314;28;20484;-71
2021/04/06 08:56:38;;;;;;;10.30;4.63;;;6.80;81.10;;;;;;5116948;28;20027;-75
2021/04/06 08:59:33;;;;;;;10.30;6.53;;;6.80;81.40;;;;;;5118900;28;20080;-76
2021/04/06 09:02:18;;;;;;;6.78;5.05;;;7.00;81.90;;;;;;5117214;28;20032;-72
2021/04/06 09:04:45;;;;;;;10.95;5.53;;;7.00;82.00;;;;;;5110450;28;20034;-72
2021/04/06 09:07:25;;;;;;;9.85;4.47;;;7.00;80.70;;;;;;5102612;28;20028;-71
2021/04/06 09:09:55;;;;;;;17.77;9.65;;;7.00;82.50;;;;;;5099779;28;20031;-72
2021/04/06 09:12:31;;;;;;;8.05;4.07;;;7.00;81.20;;;;;;5098806;28;20020;-72
2021/04/06 09:14:58;;;;;;;15.15;9.07;;;7.10;80.10;;;;;;5096690;28;20032;-75
2021/04/06 09:17:33;;;;;;;8.20;3.97;;;7.10;81.80;;;;;;5096873;28;20056;-71
2021/04/06 09:20:06;;;;;;;7.43;5.00;;;7.30;81.00;;;;;;5097176;28;20059;-77
2021/04/06 09:22:32;;;;;;;9.02;5.45;;;7.50;80.60;;;;;;5099977;28;20055;-72
2021/04/06 09:24:58;;;;;;;5.07;2.78;;;7.00;77.80;;;;;;5097824;28;20016;-67
2021/04/06 09:27:24;;;;;;;8.73;3.42;;;6.80;77.80;;;;;;5097613;28;20020;-76
2021/04/06 09:29:50;;;;;;;7.00;3.42;;;6.80;80.00;;;;;;5098954;28;20027;-77
2021/04/06 09:32:21;;;;;;;6.65;3.00;;;6.60;78.90;;;;;;5098558;28;20057;-72
2021/04/06 09:34:49;;;;;;;7.28;3.63;;;6.50;80.40;;;;;;5097128;28;20420;-72
2021/04/06 09:37:21;;;;;;;6.45;2.22;;;6.50;79.70;;;;;;5097438;28;20028;-79
2021/04/06 09:39:49;;;;;;;10.82;3.83;;;6.60;81.10;;;;;;5098002;28;20389;-75
2021/04/06 09:42:15;;;;;;;4.78;2.22;;;6.80;80.60;;;;;;5098766;28;20035;-76
2021/04/06 09:44:44;;;;;;;4.03;2.40;;;7.00;81.50;;;;;;5097673;28;20016;-76
2021/04/06 09:47:13;;;;;;;14.70;6.47;;;7.20;80.00;;;;;;5096550;28;20442;-75
2021/04/06 09:49:42;;;;;;;12.35;5.30;;;7.10;82.60;;;;;;5097100;28;20020;-76
2021/04/06 09:52:15;;;;;;;5.43;2.80;;;7.00;80.40;;;;;;5098229;28;20030;-72
2021/04/06 09:54:58;;;;;;;7.27;2.90;;;7.10;80.90;;;;;;5097733;28;20385;-76
2021/04/06 09:57:36;;;;;;;5.13;2.20;;;6.60;79.10;;;;;;5095721;28;20077;-72
2021/04/06 10:00:07;;;;;;;6.25;2.95;;;6.50;81.50;;;;;;5097720;28;20028;-73
2021/04/06 10:02:34;;;;;;;7.13;3.40;;;6.50;82.10;;;;;;5103279;28;20016;-72
2021/04/06 10:05:00;;;;;;;8.75;3.75;;;6.50;84.60;;;;;;5105319;28;20035;-71
2021/04/06 10:07:34;;;;;;;6.13;3.05;;;6.40;81.60;;;;;;5115165;28;20015;-70
2021/04/06 10:10:07;;;;;;;4.97;2.00;;;6.50;81.10;;;;;;5112782;28;20015;-74
2021/04/06 10:12:33;;;;;;;7.25;2.95;;;6.40;78.00;;;;;;5115307;28;20084;-71
2021/04/06 10:15:00;;;;;;;6.15;2.90;;;6.40;81.90;;;;;;5114531;27;20092;-69
2021/04/06 10:17:41;;;;;;;8.45;3.53;;;6.40;84.60;;;;;;5100192;28;20386;-74
2021/04/06 10:20:15;;;;;;;6.55;2.70;;;6.10;85.40;;;;;;5096726;28;20058;-71
2021/04/06 10:22:42;;;;;;;6.82;3.60;;;6.20;85.30;;;;;;5097899;28;20020;-76
2021/04/06 10:25:10;;;;;;;14.55;5.30;;;6.20;86.90;;;;;;5098811;28;20016;-73
2021/04/06 10:27:45;;;;;;;14.82;7.28;;;6.00;85.20;;;;;;5097960;28;20077;-72
2021/04/06 10:30:11;;;;;;;;;;;6.00;86.70;;;;;;5098165;28;20030;-75
2021/04/06 10:32:45;;;;;;;7.80;4.30;;;5.80;86.40;;;;;;5098646;28;19947;-71
2021/04/06 10:35:27;;;;;;;14.65;7.47;;;6.00;86.10;;;;;;5095459;28;20067;-72
2021/04/06 10:37:56;;;;;;;16.70;7.80;;;6.00;86.90;;;;;;5097583;28;20031;-72
2021/04/06 10:40:30;;;;;;;279.25;105.32;;;6.20;86.60;;;;;;5094859;28;20027;-76
2021/04/06 10:43:04;;;;;;;132.95;64.53;;;6.10;87.00;;;;;;5096362;28;20026;-71
2021/04/06 10:45:32;;;;;;;20.97;9.77;;;5.90;87.30;;;;;;5095794;28;20051;-73
2021/04/06 10:48:13;;;;;;;18.42;10.88;;;6.10;86.90;;;;;;5094624;28;20303;-71
2021/04/06 10:50:44;;;;;;;33.63;18.15;;;6.20;87.10;;;;;;5095844;28;20460;-74
2021/04/06 10:53:21;;;;;;;9.95;4.93;;;6.30;88.40;;;;;;5098250;28;20020;-75
2021/04/06 10:56:10;;;;;;;12.57;5.70;;;6.40;87.10;;;;;;5095499;28;20060;-72
2021/04/06 10:58:40;;;;;;;17.05;8.13;;;6.60;85.60;;;;;;5094841;28;20032;-80
2021/04/06 11:01:10;;;;;;;18.98;8.25;;;6.30;88.60;;;;;;5094797;28;20020;-71
2021/04/06 11:03:45;;;;;;;14.63;8.85;;;6.30;88.20;;;;;;5096362;28;20078;-74
2021/04/06 11:06:12;;;;;;;;;;;6.30;90.00;;;;;;5095493;28;20042;-72
2021/04/06 11:08:45;;;;;;;11.75;6.47;;;6.00;89.80;;;;;;5095639;28;19904;-75
2021/04/06 11:11:17;;;;;;;12.20;6.05;;;6.20;92.90;;;;;;5096783;28;20035;-71
2021/04/06 11:13:43;;;;;;;17.73;9.45;;;6.40;93.80;;;;;;5105160;28;20377;-71
2021/04/06 11:16:10;;;;;;;11.27;5.80;;;5.90;90.30;;;;;;5113461;28;20012;-70
2021/04/06 11:18:36;;;;;;;17.77;8.20;;;5.90;90.70;;;;;;5114114;28;20079;-71
2021/04/06 11:21:03;;;;;;;11.80;6.10;;;5.70;90.90;;;;;;5113550;28;20489;-72
2021/04/06 11:23:29;;;;;;;9.80;5.50;;;5.70;91.40;;;;;;5114141;28;20015;-72
2021/04/06 11:25:55;;;;;;;13.65;6.80;;;5.70;91.40;;;;;;5114096;28;20015;-73
2021/04/06 11:28:21;;;;;;;15.90;7.88;;;5.70;91.80;;;;;;5114695;28;20016;-76
2021/04/06 11:30:47;;;;;;;19.27;9.32;;;5.80;91.30;;;;;;5117056;28;20475;-75
2021/04/06 11:33:12;;;;;;;22.15;9.80;;;5.80;92.20;;;;;;5115499;28;20049;-71
2021/04/06 11:35:39;;;;;;;12.77;6.10;;;5.90;92.50;;;;;;5115155;28;20373;-71
2021/04/06 11:38:05;;;;;;;24.10;11.55;;;5.70;93.00;;;;;;5118779;28;20024;-71
2021/04/06 11:40:31;;;;;;;17.67;9.98;;;5.70;93.30;;;;;;5117306;28;20030;-74
2021/04/06 11:42:57;;;;;;;17.48;9.07;;;5.70;93.50;;;;;;5116688;28;20030;-71
2021/04/06 11:45:24;;;;;;;13.38;7.80;;;5.70;92.90;;;;;;5116661;28;20027;-72
2021/04/06 11:47:54;;;;;;;11.70;6.30;;;5.70;94.20;;;;;;5117179;28;20102;-76
2021/04/06 11:50:21;;;;;;;14.25;8.73;;;5.50;95.00;;;;;;5116789;28;20028;-72
2021/04/06 11:52:47;;;;;;;18.90;11.25;;;5.30;94.80;;;;;;5116044;28;20116;-72
2021/04/06 11:55:14;;;;;;;20.13;12.27;;;5.30;95.50;;;;;;5117118;28;20020;-75
2021/04/06 11:57:40;;;;;;;10.60;5.70;;;5.40;96.00;;;;;;5116055;28;20043;-75
2021/04/06 12:00:07;;;;;;;12.27;5.70;;;5.30;96.20;;;;;;5115237;28;20029;-74
2021/04/06 12:02:33;;;;;;;7.43;4.28;;;5.20;95.60;;;;;;5116217;28;20024;-72
2021/04/06 12:04:59;;;;;;;10.27;5.70;;;5.20;95.80;;;;;;5118954;28;20020;-70
2021/04/06 12:07:25;;;;;;;8.48;4.80;;;5.40;95.40;;;;;;5121089;28;20050;-72
2021/04/06 12:09:51;;;;;;;7.72;3.88;;;5.10;95.10;;;;;;5119311;28;20023;-77
2021/04/06 12:12:21;;;;;;;7.93;3.78;;;5.10;94.60;;;;;;5119906;28;20062;-73
2021/04/06 12:14:49;;;;;;;12.13;6.50;;;5.10;95.00;;;;;;5123385;28;20023;-75
2021/04/06 12:17:15;;;;;;;37.42;19.35;;;5.30;95.60;;;;;;5122964;28;20027;-71
2021/04/06 12:19:40;;;;;;;57.10;34.17;;;5.10;96.40;;;;;;5117768;28;20047;-75
2021/04/06 12:22:07;;;;;;;49.65;43.13;;;5.30;96.10;;;;;;5121996;28;20512;-73
2021/04/06 12:24:33;;;;;;;16.80;11.43;;;5.30;96.10;;;;;;5119654;28;20020;-75
2021/04/06 12:26:58;;;;;;;12.50;6.90;;;5.30;97.20;;;;;;5119004;28;20090;-71
2021/04/06 12:29:24;;;;;;;11.30;6.78;;;5.30;96.60;;;;;;5117998;28;20028;-71
2021/04/06 12:31:50;;;;;;;10.88;6.45;;;5.30;96.70;;;;;;5114822;28;20012;-71
2021/04/06 12:34:16;;;;;;;15.43;8.80;;;5.10;97.10;;;;;;5116732;28;20081;-75
2021/04/06 12:36:42;;;;;;;10.40;6.03;;;5.20;97.30;;;;;;5117205;28;20035;-72
2021/04/06 12:39:07;;;;;;;18.48;11.40;;;5.30;97.60;;;;;;5107104;28;20473;-71
2021/04/06 12:41:34;;;;;;;12.77;7.00;;;5.30;98.00;;;;;;5116842;28;20713;-71
2021/04/06 12:44:01;;;;;;;10.73;6.70;;;5.30;97.70;;;;;;5116383;28;20019;-71
2021/04/06 12:46:27;;;;;;;15.65;8.70;;;5.10;98.80;;;;;;5116100;28;20084;-70
2021/04/06 12:48:53;;;;;;;15.50;9.10;;;5.10;98.90;;;;;;5116317;28;20741;-72
2021/04/06 12:51:19;;;;;;;29.38;15.27;;;4.90;99.20;;;;;;5116120;28;20027;-71
2021/04/06 12:53:44;;;;;;;13.18;8.20;;;4.90;99.60;;;;;;5104018;28;20024;-71
2021/04/06 12:56:10;;;;;;;15.15;8.95;;;4.90;99.90;;;;;;5116726;28;20499;-70
2021/04/06 12:58:36;;;;;;;37.70;20.58;;;5.00;99.40;;;;;;5116634;28;20346;-70
2021/04/06 13:01:02;;;;;;;35.17;18.67;;;5.10;99.40;;;;;;5116194;28;20076;-68
2021/04/06 13:03:28;;;;;;;18.17;9.55;;;4.90;99.40;;;;;;5116560;28;20012;-71
2021/04/06 13:05:54;;;;;;;26.25;13.95;;;4.80;99.40;;;;;;5118304;28;20020;-77
2021/04/06 13:08:20;;;;;;;19.83;11.20;;;4.90;99.30;;;;;;5116930;28;20015;-71
2021/04/06 13:10:47;;;;;;;12.95;8.05;;;5.00;99.10;;;;;;5118929;28;20084;-73